Time;durP1;ratioP1;P1;durP2;ratioP2;P2;SDS_P1;SDS_P2;PMS_P1;PMS_P2;Temp;Humidity;BMP_temperature;BMP_pressure;BME280_temperature;BME280_humidity;BME280_pressure;Samples;Min_cycle;Max_cycle;Signal;HPM_P1;HPM_P2
2023/03/19 00:00:39;;;;;;;12.87;9.30;;;;;;;14.35;46.76;97607.25;8379194;28;20232;-68
2023/03/19 00:04:44;;;;;;;12.77;7.87;;;;;;;14.30;46.16;97598.91;8379007;28;20232;-67
2023/03/19 00:08:47;;;;;;;9.23;7.93;;;;;;;14.30;46.45;97601.50;8379236;28;20572;-69
2023/03/19 00:12:49;;;;;;;9.87;7.90;;;;;;;14.27;46.73;97605.16;8379285;28;20232;-68
2023/03/19 00:16:52;;;;;;;11.17;8.80;;;;;;;14.12;47.53;97606.16;8378980;28;20250;-68
2023/03/19 00:20:56;;;;;;;12.30;9.43;;;;;;;14.10;47.64;97611.44;8378802;28;20232;-68
2023/03/19 00:24:59;;;;;;;12.70;9.30;;;;;;;14.21;47.58;97614.19;8379220;28;20224;-68
2023/03/19 00:29:03;;;;;;;12.97;9.23;;;;;;;14.02;47.68;97611.94;8379139;28;20418;-68
2023/03/19 00:33:06;;;;;;;10.10;8.77;;;;;;;14.06;47.71;97616.00;8378725;28;20564;-68
2023/03/19 00:37:10;;;;;;;10.23;8.97;;;;;;;14.06;47.53;97612.59;8378749;28;20447;-68
2023/03/19 00:41:14;;;;;;;10.00;8.63;;;;;;;13.88;47.55;97605.03;8378872;28;20256;-68
2023/03/19 00:45:17;;;;;;;10.63;9.03;;;;;;;13.92;47.62;97607.41;8378962;28;20225;-68
2023/03/19 00:49:20;;;;;;;11.83;8.77;;;;;;;13.87;47.43;97599.91;8378632;28;20550;-69
2023/03/19 00:53:25;;;;;;;11.33;8.30;;;;;;;13.79;47.65;97616.00;8378739;28;20247;-69
2023/03/19 00:57:27;;;;;;;11.17;7.90;;;;;;;13.85;46.97;97614.78;8378628;28;20243;-69
2023/03/19 01:01:30;;;;;;;9.63;8.00;;;;;;;13.77;47.35;97609.25;8378304;28;20231;-68
2023/03/19 01:05:34;;;;;;;10.30;8.00;;;;;;;13.73;47.38;97606.00;8378349;28;20239;-68
2023/03/19 01:09:39;;;;;;;8.43;6.53;;;;;;;13.82;46.72;97613.22;8378525;28;20426;-69
2023/03/19 01:13:42;;;;;;;9.87;6.80;;;;;;;13.57;47.56;97603.50;8377979;28;20538;-69
2023/03/19 01:17:45;;;;;;;8.87;6.97;;;;;;;13.81;46.96;97619.34;8377988;28;20543;-69
2023/03/19 01:21:48;;;;;;;8.03;5.80;;;;;;;13.71;46.96;97614.81;8377989;28;20250;-69
2023/03/19 01:25:52;;;;;;;7.30;5.43;;;;;;;13.41;47.49;97616.63;8378081;28;20236;-68
2023/03/19 01:29:55;;;;;;;8.37;6.00;;;;;;;13.49;47.69;97618.75;8381819;28;20239;-69
2023/03/19 01:33:58;;;;;;;6.83;5.30;;;;;;;13.83;46.68;97619.25;8383650;28;20241;-69
2023/03/19 01:38:01;;;;;;;7.40;5.80;;;;;;;13.83;47.07;97624.47;8383677;28;20238;-68
2023/03/19 01:42:06;;;;;;;8.07;5.93;;;;;;;13.87;47.10;97629.38;8383731;28;20253;-68
2023/03/19 01:46:16;;;;;;;6.93;5.50;;;;;;;13.72;47.20;97629.50;8383470;28;20231;-68
2023/03/19 01:50:26;;;;;;;6.93;5.90;;;;;;;13.73;46.71;97629.41;8383201;28;20259;-68
2023/03/19 01:54:31;;;;;;;6.63;5.87;;;;;;;13.82;46.75;97617.56;8383334;28;20569;-68
2023/03/19 01:58:35;;;;;;;7.10;5.73;;;;;;;13.76;46.66;97605.78;8383153;28;20241;-68
2023/03/19 02:02:38;;;;;;;8.30;6.10;;;;;;;13.75;46.90;97613.72;8382606;28;20227;-69
2023/03/19 02:06:42;;;;;;;8.53;6.13;;;;;;;13.58;47.67;97617.34;8382283;28;20242;-68
2023/03/19 02:10:47;;;;;;;6.30;5.43;;;;;;;13.60;47.69;97621.53;8382660;28;20246;-68
2023/03/19 02:14:51;;;;;;;7.20;6.23;;;;;;;13.48;47.87;97619.69;8382285;28;20247;-69
2023/03/19 02:18:54;;;;;;;7.63;6.33;;;;;;;13.30;48.38;97619.88;8382507;28;20423;-68
2023/03/19 02:23:04;;;;;;;9.13;6.00;;;;;;;13.33;48.34;97611.06;8381948;28;20237;-68
2023/03/19 02:27:09;;;;;;;8.93;6.07;;;;;;;13.47;47.85;97612.81;8382145;28;20222;-68
2023/03/19 02:31:12;;;;;;;8.17;6.20;;;;;;;13.35;48.59;97616.19;8382064;28;20231;-69
2023/03/19 02:35:15;;;;;;;10.07;7.10;;;;;;;13.46;48.40;97617.19;8381814;28;20521;-70
2023/03/19 02:39:21;;;;;;;8.23;7.00;;;;;;;13.31;48.94;97628.53;8381689;28;20227;-69
2023/03/19 02:43:25;;;;;;;7.53;6.20;;;;;;;13.25;49.02;97629.69;8381674;28;20234;-69
2023/03/19 02:47:28;;;;;;;9.20;7.07;;;;;;;13.21;49.17;97625.63;8381822;28;20275;-68
2023/03/19 02:51:31;;;;;;;10.03;7.23;;;;;;;13.11;49.33;97622.72;8381314;28;20238;-69
2023/03/19 02:55:34;;;;;;;10.93;7.00;;;;;;;13.13;49.27;97619.19;8381316;28;20245;-69
2023/03/19 02:59:38;;;;;;;9.23;6.80;;;;;;;13.20;49.13;97625.72;8381215;28;20225;-69
2023/03/19 03:03:41;;;;;;;10.57;6.73;;;;;;;13.17;49.70;97631.91;8380486;28;20235;-69
2023/03/19 03:07:44;;;;;;;8.93;7.03;;;;;;;13.08;49.81;97632.47;8380628;28;20237;-69
2023/03/19 03:11:47;;;;;;;11.73;7.93;;;;;;;13.08;49.73;97635.09;8380718;28;20253;-69
2023/03/19 03:15:53;;;;;;;11.33;8.20;;;;;;;13.04;49.67;97634.44;8380772;28;20254;-69
2023/03/19 03:19:56;;;;;;;11.83;7.80;;;;;;;13.05;49.77;97635.25;8380483;28;20225;-69
2023/03/19 03:23:59;;;;;;;8.50;6.80;;;;;;;12.99;50.14;97646.03;8380423;28;20232;-69
2023/03/19 03:28:02;;;;;;;8.13;6.40;;;;;;;13.01;50.01;97644.16;8380065;28;20506;-69
2023/03/19 03:32:07;;;;;;;8.13;7.10;;;;;;;13.02;50.05;97651.03;8380038;28;20221;-69
2023/03/19 03:36:10;;;;;;;10.37;7.10;;;;;;;13.06;49.92;97655.09;8380117;28;20428;-69
2023/03/19 03:40:13;;;;;;;8.67;6.53;;;;;;;12.96;50.36;97654.81;8379775;28;20422;-69
2023/03/19 03:44:16;;;;;;;9.20;6.40;;;;;;;13.02;50.27;97661.41;8379909;28;20573;-69
2023/03/19 03:48:20;;;;;;;7.57;6.00;;;;;;;13.00;50.11;97661.50;8379636;28;20513;-69
2023/03/19 03:52:23;;;;;;;7.67;6.57;;;;;;;12.87;50.45;97661.41;8378904;28;20228;-69
2023/03/19 03:56:26;;;;;;;8.20;6.90;;;;;;;12.82;50.85;97667.81;8379318;28;20271;-69
2023/03/19 04:00:28;;;;;;;9.90;6.57;;;;;;;12.85;50.76;97660.66;8379411;28;20234;-69
2023/03/19 04:04:33;;;;;;;8.07;7.27;;;;;;;12.91;50.49;97662.91;8379568;28;20530;-69
2023/03/19 04:08:36;;;;;;;9.77;7.57;;;;;;;12.87;51.00;97674.41;8379211;28;20237;-69
2023/03/19 04:12:39;;;;;;;8.50;7.17;;;;;;;12.92;50.86;97679.31;8379174;28;20233;-70
2023/03/19 04:16:42;;;;;;;6.80;6.10;;;;;;;12.76;50.81;97678.56;8378579;28;20243;-69
2023/03/19 04:20:47;;;;;;;7.90;5.83;;;;;;;12.69;51.06;97676.28;8378644;28;20234;-67
2023/03/19 04:24:50;;;;;;;9.73;5.93;;;;;;;12.67;50.68;97677.31;8378933;28;20238;-68
2023/03/19 04:28:53;;;;;;;8.13;6.03;;;;;;;12.61;51.14;97675.91;8379055;28;20525;-68
2023/03/19 04:32:55;;;;;;;7.67;6.43;;;;;;;12.67;51.52;97682.50;8378713;28;20227;-68
2023/03/19 04:37:00;;;;;;;8.80;5.93;;;;;;;12.64;51.55;97680.06;8378567;28;20286;-68
2023/03/19 04:41:03;;;;;;;6.33;5.73;;;;;;;12.65;51.92;97682.59;8378725;28;20225;-68
2023/03/19 04:45:07;;;;;;;7.00;6.20;;;;;;;12.74;51.03;97680.38;8378535;28;20446;-68
2023/03/19 04:49:09;;;;;;;8.07;6.23;;;;;;;12.71;51.61;97677.03;8378546;28;20223;-69
2023/03/19 04:53:14;;;;;;;9.00;6.77;;;;;;;12.68;51.64;97677.22;8378350;28;20241;-69
2023/03/19 04:57:17;;;;;;;7.83;6.20;;;;;;;12.77;51.33;97680.22;8378152;28;20233;-68
2023/03/19 05:01:20;;;;;;;7.30;6.13;;;;;;;12.73;51.33;97699.50;8378158;28;20545;-69
2023/03/19 05:05:23;;;;;;;9.43;6.40;;;;;;;12.82;51.56;97691.19;8384349;28;20234;-68
2023/03/19 05:09:29;;;;;;;7.40;6.60;;;;;;;12.55;52.01;97689.25;8384538;28;20254;-69
2023/03/19 05:13:32;;;;;;;8.60;7.03;;;;;;;12.74;51.38;97706.38;8384607;28;20425;-69
2023/03/19 05:17:35;;;;;;;7.27;6.43;;;;;;;12.71;51.26;97703.00;8384048;28;20239;-69
2023/03/19 05:21:38;;;;;;;8.93;7.47;;;;;;;12.71;51.29;97720.38;8384066;28;20399;-68
2023/03/19 05:25:42;;;;;;;9.97;7.70;;;;;;;12.66;52.49;97712.00;8384108;28;20232;-68
2023/03/19 05:29:45;;;;;;;9.77;7.73;;;;;;;12.78;51.80;97715.69;8383483;28;20226;-69
2023/03/19 05:33:48;;;;;;;12.27;9.00;;;;;;;12.67;52.24;97700.69;8383695;28;20547;-68
2023/03/19 05:37:51;;;;;;;15.20;11.70;;;;;;;12.61;52.56;97727.84;8383173;28;20240;-68
2023/03/19 05:41:55;;;;;;;20.07;13.20;;;;;;;12.89;51.73;97737.53;8383566;28;20237;-69
2023/03/19 05:45:58;;;;;;;9.67;8.43;;;;;;;12.71;52.18;97738.56;8383289;28;20577;-69
2023/03/19 05:50:01;;;;;;;13.40;9.27;;;;;;;12.69;52.29;97750.81;8383092;28;20236;-69
2023/03/19 05:54:04;;;;;;;12.10;8.13;;;;;;;12.72;52.75;97755.84;8383064;28;20225;-69
2023/03/19 05:58:08;;;;;;;8.33;7.30;;;;;;;12.59;53.46;97760.03;8382991;28;20233;-69
2023/03/19 06:02:11;;;;;;;10.60;7.10;;;;;;;12.65;53.47;97755.34;8382442;28;20233;-67
2023/03/19 06:06:14;;;;;;;10.10;7.13;;;;;;;12.69;53.42;97761.19;8382664;28;20416;-67
2023/03/19 06:10:17;;;;;;;8.70;7.57;;;;;;;12.82;53.37;97774.34;8382677;28;20232;-68
2023/03/19 06:14:21;;;;;;;8.23;7.13;;;;;;;12.80;53.36;97773.59;8382065;28;20497;-68
2023/03/19 06:18:24;;;;;;;8.73;7.63;;;;;;;12.73;53.63;97780.06;8382257;28;20233;-69
2023/03/19 06:22:27;;;;;;;8.83;7.17;;;;;;;12.81;54.21;97780.44;8380532;28;20228;-69
2023/03/19 06:26:30;;;;;;;8.97;7.57;;;;;;;12.77;54.34;97781.56;8382181;28;20237;-69
2023/03/19 06:30:34;;;;;;;10.67;8.43;;;;;;;12.94;54.08;97781.44;8381660;28;20556;-68
2023/03/19 06:34:38;;;;;;;10.57;8.00;;;;;;;12.82;54.15;97792.53;8381802;28;20547;-68
2023/03/19 06:38:41;;;;;;;10.07;7.50;;;;;;;12.82;54.12;97780.38;8381691;28;20233;-68
2023/03/19 06:42:45;;;;;;;8.60;7.70;;;;;;;12.82;54.74;97787.34;8381157;28;20226;-68
2023/03/19 06:46:49;;;;;;;10.03;8.23;;;;;;;12.91;54.22;97772.06;8381182;28;20297;-68
2023/03/19 06:50:52;;;;;;;9.80;8.80;;;;;;;13.08;54.49;97797.09;8381310;28;20259;-67
2023/03/19 06:54:55;;;;;;;8.50;6.83;;;;;;;13.17;54.55;97802.69;8381195;28;20241;-68
2023/03/19 06:58:58;;;;;;;6.33;5.53;;;;;;;13.27;54.05;97812.47;8380983;28;20238;-69
2023/03/19 07:03:02;;;;;;;6.13;4.57;;;;;;;13.33;54.53;97819.13;8380963;28;20243;-68
2023/03/19 07:07:05;;;;;;;6.23;4.33;;;;;;;13.36;54.89;97829.31;8380957;28;20234;-68
2023/03/19 07:11:08;;;;;;;4.27;3.37;;;;;;;13.35;55.64;97835.47;8380721;28;20226;-69
2023/03/19 07:15:11;;;;;;;4.20;3.30;;;;;;;13.47;55.58;97844.31;8380196;28;20231;-68
2023/03/19 07:19:15;;;;;;;3.20;2.90;;;;;;;13.57;55.19;97852.44;8380573;28;20234;-68
2023/03/19 07:23:18;;;;;;;4.43;3.07;;;;;;;13.66;55.60;97855.31;8380534;28;20230;-68
2023/03/19 07:27:21;;;;;;;4.03;3.03;;;;;;;13.59;56.28;97858.38;8379210;28;20264;-69
2023/03/19 07:31:24;;;;;;;3.77;3.07;;;;;;;13.56;56.37;97841.19;8379936;28;20226;-69
2023/03/19 07:35:28;;;;;;;4.37;3.17;;;;;;;13.23;58.16;97860.38;8379924;28;20369;-69
2023/03/19 07:39:31;;;;;;;3.30;3.00;;;;;;;13.49;58.02;97855.47;8380222;28;20290;-69
2023/03/19 07:43:34;;;;;;;3.23;2.80;;;;;;;13.44;58.34;97865.28;8379802;28;20230;-69
2023/03/19 07:47:37;;;;;;;4.47;2.43;;;;;;;13.44;59.20;97857.50;8379791;28;20230;-68
2023/03/19 07:51:41;;;;;;;3.30;2.87;;;;;;;13.47;59.42;97865.13;8379398;28;20229;-69
2023/03/19 07:55:44;;;;;;;3.47;2.60;;;;;;;13.70;59.22;97871.59;8379073;28;20262;-69
2023/03/19 07:59:47;;;;;;;3.37;2.67;;;;;;;13.62;60.49;97877.25;8379294;28;20225;-69
2023/03/19 08:03:49;;;;;;;2.90;2.60;;;;;;;13.77;60.46;97877.28;8379164;28;20231;-69
2023/03/19 08:07:54;;;;;;;3.47;2.53;;;;;;;13.54;61.33;97883.84;8379087;28;20269;-69
2023/03/19 08:11:57;;;;;;;3.17;2.80;;;;;;;13.56;61.19;97892.41;8379084;28;20235;-69
2023/03/19 08:16:00;;;;;;;5.03;4.30;;;;;;;13.54;61.46;97899.44;8378806;28;20542;-69
2023/03/19 08:20:03;;;;;;;4.07;2.90;;;;;;;13.72;60.77;97900.97;8378900;28;20236;-69
2023/03/19 08:24:07;;;;;;;2.90;2.30;;;;;;;13.63;61.06;97909.31;8379062;28;20550;-69
2023/03/19 08:28:10;;;;;;;3.47;2.90;;;;;;;13.76;60.95;97912.03;8379146;28;20233;-69
2023/03/19 08:32:13;;;;;;;2.90;2.20;;;;;;;13.89;60.64;97926.03;8378520;28;20231;-69
2023/03/19 08:36:16;;;;;;;2.83;2.33;;;;;;;13.79;60.91;97922.28;8378967;28;20222;-69
2023/03/19 08:40:21;;;;;;;2.50;2.30;;;;;;;13.76;61.06;97925.06;8385644;28;20572;-69
2023/03/19 08:44:23;;;;;;;3.57;2.73;;;;;;;13.69;61.60;97930.63;8385081;28;20229;-69
2023/03/19 08:48:27;;;;;;;2.77;2.53;;;;;;;13.90;61.05;97935.53;8384910;28;20431;-70
2023/03/19 08:52:30;;;;;;;2.67;2.47;;;;;;;13.78;60.91;97921.44;8385231;28;20223;-69
2023/03/19 08:56:34;;;;;;;3.13;2.60;;;;;;;13.98;60.60;97940.28;8384968;28;20368;-69
2023/03/19 09:00:37;;;;;;;2.80;2.60;;;;;;;13.97;61.14;97941.19;8384694;28;20224;-69
2023/03/19 09:04:40;;;;;;;4.07;3.40;;;;;;;13.77;61.92;97951.00;8384663;28;20239;-69
2023/03/19 09:08:43;;;;;;;2.70;2.17;;;;;;;13.91;61.16;97952.78;8384135;28;20232;-69
2023/03/19 09:12:47;;;;;;;3.23;2.60;;;;;;;13.79;61.34;97961.31;8384405;28;20232;-69
2023/03/19 09:16:50;;;;;;;3.67;2.60;;;;;;;13.97;61.11;97967.22;8383809;28;20226;-69
2023/03/19 09:20:56;;;;;;;2.97;2.17;;;;;;;13.96;61.33;97952.53;8384073;28;20246;-69
2023/03/19 09:24:59;;;;;;;4.10;2.60;;;;;;;13.99;61.68;97965.38;8384232;28;20298;-69
2023/03/19 09:29:03;;;;;;;2.20;2.00;;;;;;;14.02;62.48;97952.19;8383894;28;20232;-69
2023/03/19 09:33:06;;;;;;;2.47;1.90;;;;;;;14.00;62.39;97947.06;8383525;28;20234;-69
2023/03/19 09:37:10;;;;;;;2.47;1.60;;;;;;;13.99;62.92;97952.34;8383916;28;20295;-69
2023/03/19 09:41:18;;;;;;;2.23;1.80;;;;;;;13.88;63.10;97966.00;8383655;28;20232;-69
2023/03/19 09:45:23;;;;;;;3.53;2.73;;;;;;;14.02;63.06;97973.84;8383541;28;20239;-69
2023/03/19 09:49:27;;;;;;;3.73;2.43;;;;;;;14.11;62.38;97964.66;8382400;28;20270;-69
2023/03/19 09:53:37;;;;;;;4.50;4.10;;;;;;;14.32;61.35;97959.94;8383257;28;20249;-69
2023/03/19 09:57:40;;;;;;;5.70;2.70;;;;;;;14.42;61.45;97961.06;8383211;28;20231;-69
2023/03/19 10:01:49;;;;;;;3.63;2.33;;;;;;;14.58;61.35;97976.66;8382700;28;20228;-69
2023/03/19 10:05:58;;;;;;;4.90;4.13;;;;;;;14.66;61.52;97966.59;8382605;28;20260;-70
2023/03/19 10:10:22;;;;;;;3.93;2.63;;;;;;;13.88;61.40;97851.47;8382825;28;20245;-69
2023/03/19 10:14:41;;;;;;;2.83;2.63;;;;;;;14.72;62.17;97967.16;8382687;28;20507;-70
2023/03/19 10:18:48;;;;;;;3.80;3.00;;;;;;;14.75;61.17;97970.41;8381897;28;20254;-69
2023/03/19 10:22:55;;;;;;;3.40;3.10;;;;;;;14.42;63.13;97970.66;8382156;28;20236;-70
2023/03/19 10:26:59;;;;;;;4.30;3.90;;;;;;;13.93;65.61;97953.53;8382224;28;20232;-70
2023/03/19 10:31:12;;;;;;;5.10;4.60;;;;;;;13.54;66.08;97965.31;8381720;28;20545;-69
2023/03/19 10:35:19;;;;;;;4.70;4.07;;;;;;;13.81;66.71;97964.69;8381616;28;20226;-70
2023/03/19 10:39:22;;;;;;;5.13;4.63;;;;;;;13.28;68.79;97977.16;8381875;28;20230;-70
2023/03/19 10:43:25;;;;;;;4.87;4.30;;;;;;;13.29;68.96;97968.44;8381649;28;20229;-70
2023/03/19 10:47:28;;;;;;;6.03;5.47;;;;;;;13.17;70.44;97958.69;8381510;28;20235;-70
2023/03/19 10:51:33;;;;;;;6.70;4.80;;;;;;;13.18;70.29;97956.00;8381023;28;20228;-70
2023/03/19 10:55:36;;;;;;;4.57;4.17;;;;;;;13.86;67.49;97962.66;8380893;28;20242;-70
2023/03/19 10:59:38;;;;;;;4.77;3.90;;;;;;;13.74;68.66;97963.34;8381022;28;20535;-70
2023/03/19 11:03:50;;;;;;;3.93;3.20;;;;;;;13.42;69.41;97953.84;8380502;28;20242;-70
2023/03/19 11:08:00;;;;;;;3.90;3.50;;;;;;;13.56;69.24;97953.06;8380760;28;20231;-70
2023/03/19 11:12:07;;;;;;;4.53;3.87;;;;;;;14.05;68.26;97947.63;8380528;28;20223;-70
2023/03/19 11:16:12;;;;;;;3.53;3.23;;;;;;;14.56;64.68;97952.41;8380649;28;20230;-70
2023/03/19 11:20:22;;;;;;;2.70;2.50;;;;;;;14.32;65.94;97946.94;8380413;28;20575;-70
2023/03/19 11:24:26;;;;;;;3.17;2.87;;;;;;;14.53;65.16;97946.56;8380391;28;20297;-70
2023/03/19 11:28:32;;;;;;;3.37;3.07;;;;;;;13.75;68.04;97947.66;8380097;28;20232;-70
2023/03/19 11:32:56;;;;;;;3.63;3.33;;;;;;;14.23;67.35;97929.25;8379982;28;20527;-70
2023/03/19 11:37:05;;;;;;;4.23;3.77;;;;;;;14.35;66.96;97923.28;8379760;28;20242;-70
2023/03/19 11:41:18;;;;;;;3.83;3.53;;;;;;;14.69;65.95;97920.44;8379588;28;20228;-70
2023/03/19 11:45:30;;;;;;;3.73;3.10;;;;;;;14.77;63.04;97915.56;8379673;28;20238;-70
2023/03/19 11:49:57;;;;;;;3.40;2.87;;;;;;;14.98;61.85;97905.56;8378928;28;20231;-70
2023/03/19 11:54:05;;;;;;;4.27;3.40;;;;;;;15.37;61.57;97873.47;8377287;28;20235;-70
2023/03/19 11:58:27;;;;;;;4.70;3.20;;;;;;;15.41;62.62;97901.03;8378910;28;20239;-70
2023/03/19 12:03:01;;;;;;;7.30;3.40;;;;;;;17.59;57.98;97886.88;8379409;28;20224;-72
2023/03/19 12:07:10;;;;;;;4.90;3.73;;;;;;;17.26;56.84;97884.97;8369432;28;20229;-73
2023/03/19 12:11:18;;;;;;;3.27;2.67;;;;;;;16.81;57.29;97882.88;8379736;28;20228;-73
2023/03/19 12:15:27;;;;;;;4.63;2.70;;;;;;;16.60;58.29;97882.63;8379988;28;20435;-70
2023/03/19 12:19:59;;;;;;;3.87;2.67;;;;;;;16.72;56.34;97878.34;8376952;28;20549;-70
2023/03/19 12:24:04;;;;;;;3.90;3.10;;;;;;;17.11;55.87;97873.84;8379800;28;20487;-70
2023/03/19 12:28:10;;;;;;;9.50;8.57;;;;;;;17.23;54.38;97885.19;8379821;28;20234;-70
2023/03/19 12:32:41;;;;;;;3.13;2.77;;;;;;;17.08;54.01;97866.22;8379874;28;20224;-70
2023/03/19 12:36:49;;;;;;;3.20;2.87;;;;;;;17.87;51.62;97875.19;8379418;28;20236;-70
2023/03/19 12:40:57;;;;;;;3.40;3.10;;;;;;;18.70;49.41;97873.22;8379460;28;20543;-70
2023/03/19 12:45:01;;;;;;;3.10;2.50;;;;;;;18.98;50.55;97858.75;8379146;28;20248;-71
2023/03/19 12:49:10;;;;;;;3.93;2.80;;;;;;;18.74;50.74;97866.78;8379570;28;20521;-70
2023/03/19 12:53:22;;;;;;;3.03;2.57;;;;;;;19.38;48.78;97858.16;8379145;28;20236;-70
2023/03/19 12:57:31;;;;;;;2.60;2.40;;;;;;;19.27;47.08;97848.53;8379247;28;20232;-70
2023/03/19 13:01:37;;;;;;;2.83;2.13;;;;;;;19.67;47.74;97852.28;8379182;28;20229;-70
2023/03/19 13:05:45;;;;;;;2.10;1.80;;;;;;;19.41;45.56;97847.38;8379054;28;20225;-70
2023/03/19 13:09:51;;;;;;;1.80;1.70;;;;;;;19.83;43.82;97841.34;8378360;28;20229;-70
2023/03/19 13:13:58;;;;;;;2.50;2.30;;;;;;;18.23;48.29;97844.53;8379172;28;20240;-70
2023/03/19 13:18:12;;;;;;;2.47;1.80;;;;;;;18.90;46.75;97814.75;8378969;28;20284;-70
2023/03/19 13:22:19;;;;;;;2.60;1.90;;;;;;;18.62;49.30;97844.13;8379135;28;20229;-70
2023/03/19 13:26:22;;;;;;;2.37;2.17;;;;;;;18.44;47.86;97841.19;8385090;28;20228;-70
2023/03/19 13:30:25;;;;;;;2.47;2.17;;;;;;;18.60;47.85;97841.66;8384848;28;20232;-70
2023/03/19 13:34:29;;;;;;;2.30;1.90;;;;;;;19.31;45.83;97825.47;8384959;28;20526;-70
2023/03/19 13:38:39;;;;;;;2.50;2.30;;;;;;;19.04;45.96;97825.94;8384638;28;20243;-70
2023/03/19 13:42:42;;;;;;;2.10;1.90;;;;;;;19.07;44.79;97818.66;8384043;28;20244;-70
2023/03/19 13:46:45;;;;;;;2.63;1.77;;;;;;;19.78;43.92;97812.84;8384182;28;20236;-70
2023/03/19 13:50:55;;;;;;;2.10;1.90;;;;;;;19.43;44.08;97813.13;8384094;28;20233;-70
2023/03/19 13:55:31;;;;;;;1.77;1.67;;;;;;;19.15;44.54;97820.63;8384174;28;20423;-69
2023/03/19 13:59:35;;;;;;;3.97;2.70;;;;;;;18.95;45.67;97811.78;8384024;28;20545;-69
2023/03/19 14:03:40;;;;;;;2.73;1.90;;;;;;;18.40;46.93;97813.53;8383413;28;20224;-70
2023/03/19 14:07:49;;;;;;;2.20;1.93;;;;;;;18.49;47.50;97824.13;8383408;28;20229;-70
2023/03/19 14:12:21;;;;;;;3.43;2.13;;;;;;;17.74;46.92;97817.66;8383467;28;20497;-69
2023/03/19 14:16:25;;;;;;;2.20;1.87;;;;;;;18.63;46.93;97820.41;8383371;28;20436;-69
2023/03/19 14:20:34;;;;;;;2.77;1.77;;;;;;;19.04;44.91;97818.06;8382709;28;20518;-69
2023/03/19 14:24:54;;;;;;;1.60;1.40;;;;;;;19.02;42.98;97767.50;8382846;28;20237;-69
2023/03/19 14:29:02;;;;;;;2.70;1.50;;;;;;;18.92;43.55;97801.53;8382935;28;20225;-69
2023/03/19 14:33:07;;;;;;;2.20;1.57;;;;;;;18.89;44.33;97786.06;8383010;28;20220;-69
2023/03/19 14:37:19;;;;;;;2.50;1.50;;;;;;;18.94;44.95;97791.72;8382286;28;20232;-69
2023/03/19 14:41:22;;;;;;;2.10;1.50;;;;;;;18.68;43.65;97813.00;8382567;28;20233;-69
2023/03/19 14:45:35;;;;;;;2.70;1.80;;;;;;;18.56;43.96;97809.59;8382206;28;20236;-69
2023/03/19 14:50:04;;;;;;;1.63;1.53;;;;;;;18.83;43.89;97797.88;8382474;28;20528;-69
2023/03/19 14:54:17;;;;;;;1.57;1.37;;;;;;;18.65;44.26;97801.94;8382049;28;20237;-69
2023/03/19 14:58:22;;;;;;;3.60;1.90;;;;;;;18.32;44.96;97796.63;8382175;28;20235;-69
2023/03/19 15:02:35;;;;;;;1.63;1.50;;;;;;;19.04;44.08;97791.81;8381912;28;20252;-69
2023/03/19 15:06:39;;;;;;;1.93;1.70;;;;;;;18.65;43.65;97797.50;8381721;28;20246;-69
2023/03/19 15:10:50;;;;;;;3.10;1.70;;;;;;;18.28;46.06;97803.06;8381322;28;20512;-69
2023/03/19 15:15:09;;;;;;;2.30;1.73;;;;;;;18.06;45.45;97790.78;8381569;28;20229;-69
2023/03/19 15:19:22;;;;;;;2.03;1.50;;;;;;;17.81;46.59;97785.75;8380551;28;20532;-69
2023/03/19 15:23:27;;;;;;;3.17;1.63;;;;;;;17.93;45.88;97767.34;8380699;28;20224;-68
2023/03/19 15:27:30;;;;;;;2.47;1.63;;;;;;;18.00;45.62;97778.19;8380073;28;20243;-69
2023/03/19 15:31:43;;;;;;;2.60;1.80;;;;;;;18.07;45.71;97757.59;8380200;28;20241;-69
2023/03/19 15:36:04;;;;;;;2.23;2.03;;;;;;;17.54;47.86;97777.28;8379900;28;20235;-69
2023/03/19 15:40:10;;;;;;;3.63;1.90;;;;;;;17.85;46.23;97774.13;8380125;28;20232;-69
2023/03/19 15:44:16;;;;;;;1.77;1.50;;;;;;;17.49;46.36;97771.53;8379901;28;20221;-69
2023/03/19 15:48:21;;;;;;;2.47;1.70;;;;;;;17.67;46.49;97764.09;8379247;28;20231;-69
2023/03/19 15:52:26;;;;;;;3.03;2.00;;;;;;;17.14;48.19;97769.78;8379842;28;20412;-69
2023/03/19 15:56:29;;;;;;;3.23;1.57;;;;;;;17.39;47.57;97771.41;8379349;28;20262;-69
2023/03/19 16:00:36;;;;;;;3.50;2.00;;;;;;;16.85;48.44;97766.72;8379663;28;20524;-69
2023/03/19 16:04:47;;;;;;;2.20;1.70;;;;;;;16.72;49.36;97758.06;8379353;28;20240;-69
2023/03/19 16:09:32;;;;;;;1.40;1.30;;;;;;;16.73;48.82;97755.31;8379387;28;20252;-69
2023/03/19 16:13:39;;;;;;;1.53;1.43;;;;;;;16.60;49.05;97762.38;8379174;28;20523;-69
2023/03/19 16:17:42;;;;;;;2.73;1.80;;;;;;;16.69;49.02;97760.88;8378833;28;20541;-68
2023/03/19 16:21:44;;;;;;;2.53;1.90;;;;;;;16.08;50.14;97708.63;8379159;28;20247;-69
2023/03/19 16:25:49;;;;;;;2.17;1.60;;;;;;;16.89;48.87;97768.16;8379088;28;20236;-69
2023/03/19 16:29:57;;;;;;;3.00;1.80;;;;;;;16.59;49.19;97782.47;8379021;28;20245;-69
2023/03/19 16:34:00;;;;;;;2.00;1.67;;;;;;;16.54;48.83;97778.50;8378961;28;20232;-70
2023/03/19 16:38:10;;;;;;;3.00;2.57;;;;;;;16.60;49.39;97776.31;8379027;28;20418;-68
2023/03/19 16:42:28;;;;;;;2.97;2.67;;;;;;;16.81;49.01;97783.50;8379744;28;20227;-68
2023/03/19 16:46:31;;;;;;;3.67;3.30;;;;;;;16.88;48.96;97791.81;8378657;28;20232;-68
2023/03/19 16:50:37;;;;;;;5.20;4.57;;;;;;;16.70;49.44;97799.19;8378280;28;20443;-69
2023/03/19 16:54:40;;;;;;;3.30;2.73;;;;;;;16.72;49.31;97807.75;8378677;28;20237;-68
2023/03/19 16:58:44;;;;;;;2.90;2.10;;;;;;;16.56;49.36;97803.63;8380078;28;20240;-69
2023/03/19 17:02:47;;;;;;;2.23;2.00;;;;;;;16.61;49.50;97811.94;8385284;28;20239;-68
2023/03/19 17:06:50;;;;;;;3.27;2.43;;;;;;;16.61;49.80;97806.72;8384843;28;20244;-68
2023/03/19 17:10:54;;;;;;;3.40;2.50;;;;;;;16.60;49.98;97817.28;8384726;28;20228;-68
2023/03/19 17:14:58;;;;;;;3.33;3.03;;;;;;;16.54;49.71;97818.53;8384444;28;20241;-68
2023/03/19 17:19:01;;;;;;;3.63;2.10;;;;;;;16.50;50.33;97830.16;8384778;28;20262;-68
2023/03/19 17:23:10;;;;;;;2.00;1.90;;;;;;;16.40;49.95;97826.53;8384226;28;20442;-68
2023/03/19 17:27:14;;;;;;;2.40;2.20;;;;;;;16.35;50.08;97839.09;8384069;28;20300;-69
2023/03/19 17:31:35;;;;;;;3.57;2.00;;;;;;;16.31;50.29;97835.03;8384316;28;20427;-69
2023/03/19 17:35:38;;;;;;;3.90;2.90;;;;;;;16.27;49.94;97844.84;8383893;28;20256;-69
2023/03/19 17:39:42;;;;;;;5.53;4.10;;;;;;;16.35;50.00;97842.53;8383654;28;20528;-69
2023/03/19 17:43:44;;;;;;;3.30;3.00;;;;;;;16.28;50.75;97850.91;8382789;28;20234;-69
2023/03/19 17:47:51;;;;;;;2.37;2.03;;;;;;;16.23;50.18;97859.06;8383619;28;20239;-69
2023/03/19 17:51:57;;;;;;;3.00;1.93;;;;;;;16.29;49.95;97868.25;8383520;28;20232;-69
2023/03/19 17:56:00;;;;;;;2.37;2.27;;;;;;;16.22;50.43;97873.91;8383211;28;20255;-69
2023/03/19 18:00:04;;;;;;;5.13;3.17;;;;;;;16.13;50.99;97869.31;8383028;28;20230;-69
2023/03/19 18:04:12;;;;;;;8.50;4.53;;;;;;;16.20;50.82;97865.34;8382966;28;20227;-70
2023/03/19 18:08:18;;;;;;;3.33;2.43;;;;;;;16.19;50.08;97884.56;8383051;28;20506;-68
2023/03/19 18:12:21;;;;;;;7.17;5.23;;;;;;;16.07;51.71;97914.16;8381840;28;20226;-69
2023/03/19 18:16:27;;;;;;;4.40;3.20;;;;;;;15.79;52.43;97912.56;8382775;28;20407;-68
2023/03/19 18:20:35;;;;;;;2.97;2.40;;;;;;;15.92;52.02;97912.56;8382934;28;20227;-68
2023/03/19 18:24:38;;;;;;;2.10;2.00;;;;;;;15.60;52.11;97924.16;8382699;28;20229;-68
2023/03/19 18:28:41;;;;;;;2.33;1.57;;;;;;;15.68;52.23;97936.72;8382145;28;20241;-69
2023/03/19 18:32:46;;;;;;;1.97;1.67;;;;;;;15.57;52.58;97944.41;8381637;28;20284;-68
2023/03/19 18:36:50;;;;;;;1.90;1.73;;;;;;;15.63;52.34;97931.81;8382061;28;20513;-69
2023/03/19 18:40:53;;;;;;;2.10;1.80;;;;;;;15.70;53.36;97953.09;8381960;28;20417;-69
2023/03/19 18:44:56;;;;;;;2.30;2.00;;;;;;;15.43;54.54;97956.56;8381982;28;20539;-69
2023/03/19 18:49:01;;;;;;;2.10;1.90;;;;;;;15.50;54.81;97971.81;8381361;28;20245;-69
2023/03/19 18:53:06;;;;;;;2.97;1.93;;;;;;;15.37;54.77;97967.41;8381714;28;20443;-69
2023/03/19 18:57:11;;;;;;;2.70;2.43;;;;;;;15.46;55.04;97966.00;8381629;28;20252;-69
2023/03/19 19:01:17;;;;;;;2.83;2.20;;;;;;;15.31;55.92;97961.75;8381477;28;20220;-69
2023/03/19 19:05:22;;;;;;;2.50;2.10;;;;;;;15.13;56.92;97966.34;8381380;28;20220;-70
2023/03/19 19:09:26;;;;;;;3.77;2.90;;;;;;;15.23;57.18;97980.47;8381281;28;20396;-69
2023/03/19 19:13:32;;;;;;;6.27;2.13;;;;;;;16.61;64.97;97979.25;8381028;28;20235;-71